sensor_id;sensor_type;location;lat;lon;timestamp;temperature;humidity
19214;DHT22;9741;51.020;5.304;2022-10-28T00:02:18;18.20;63.40
19214;DHT22;9741;51.020;5.304;2022-10-28T00:04:45;18.10;63.40
19214;DHT22;9741;51.020;5.304;2022-10-28T00:07:12;18.00;63.30
19214;DHT22;9741;51.020;5.304;2022-10-28T00:09:39;17.90;63.30
19214;DHT22;9741;51.020;5.304;2022-10-28T00:12:06;17.70;63.30
19214;DHT22;9741;51.020;5.304;2022-10-28T00:14:35;17.60;63.30
19214;DHT22;9741;51.020;5.304;2022-10-28T00:17:02;17.50;63.40
19214;DHT22;9741;51.020;5.304;2022-10-28T00:19:29;17.40;63.40
19214;DHT22;9741;51.020;5.304;2022-10-28T00:21:56;17.30;63.40
19214;DHT22;9741;51.020;5.304;2022-10-28T00:24:23;17.20;63.50
19214;DHT22;9741;51.020;5.304;2022-10-28T00:26:50;17.10;63.50
19214;DHT22;9741;51.020;5.304;2022-10-28T00:29:18;17.10;63.70
19214;DHT22;9741;51.020;5.304;2022-10-28T00:31:47;17.00;63.70
19214;DHT22;9741;51.020;5.304;2022-10-28T00:34:17;16.90;63.70
19214;DHT22;9741;51.020;5.304;2022-10-28T00:36:46;16.80;63.80
19214;DHT22;9741;51.020;5.304;2022-10-28T00:39:15;16.70;63.80
19214;DHT22;9741;51.020;5.304;2022-10-28T00:41:45;16.60;63.90
19214;DHT22;9741;51.020;5.304;2022-10-28T00:47:28;16.50;64.00
19214;DHT22;9741;51.020;5.304;2022-10-28T00:50:03;16.40;64.10
19214;DHT22;9741;51.020;5.304;2022-10-28T00:52:31;16.30;64.10
19214;DHT22;9741;51.020;5.304;2022-10-28T00:55:00;16.30;64.30
19214;DHT22;9741;51.020;5.304;2022-10-28T00:57:30;16.20;64.30
19214;DHT22;9741;51.020;5.304;2022-10-28T00:59:59;16.20;64.40
19214;DHT22;9741;51.020;5.304;2022-10-28T01:02:28;16.10;64.50
19214;DHT22;9741;51.020;5.304;2022-10-28T01:04:55;16.10;64.70
19214;DHT22;9741;51.020;5.304;2022-10-28T01:07:22;16.20;65.00
19214;DHT22;9741;51.020;5.304;2022-10-28T01:09:50;16.30;65.20
19214;DHT22;9741;51.020;5.304;2022-10-28T01:12:24;16.30;65.20
19214;DHT22;9741;51.020;5.304;2022-10-28T01:15:01;16.40;65.30
19214;DHT22;9741;51.020;5.304;2022-10-28T01:17:45;16.50;65.40
19214;DHT22;9741;51.020;5.304;2022-10-28T01:20:51;16.60;65.50
19214;DHT22;9741;51.020;5.304;2022-10-28T01:23:29;16.70;65.40
19214;DHT22;9741;51.020;5.304;2022-10-28T01:26:14;16.60;65.40
19214;DHT22;9741;51.020;5.304;2022-10-28T01:29:09;16.70;65.50
19214;DHT22;9741;51.020;5.304;2022-10-28T01:31:46;16.80;65.60
19214;DHT22;9741;51.020;5.304;2022-10-28T01:34:23;16.80;65.60
19214;DHT22;9741;51.020;5.304;2022-10-28T01:36:58;16.80;65.50
19214;DHT22;9741;51.020;5.304;2022-10-28T01:39:31;16.90;65.50
19214;DHT22;9741;51.020;5.304;2022-10-28T01:42:07;17.00;65.60
19214;DHT22;9741;51.020;5.304;2022-10-28T01:44:44;17.00;65.50
19214;DHT22;9741;51.020;5.304;2022-10-28T01:47:16;17.00;65.30
19214;DHT22;9741;51.020;5.304;2022-10-28T01:49:50;17.10;65.30
19214;DHT22;9741;51.020;5.304;2022-10-28T01:52:22;17.00;65.20
19214;DHT22;9741;51.020;5.304;2022-10-28T01:54:59;17.00;65.20
19214;DHT22;9741;51.020;5.304;2022-10-28T01:57:29;17.00;65.20
19214;DHT22;9741;51.020;5.304;2022-10-28T01:59:57;17.00;65.10
19214;DHT22;9741;51.020;5.304;2022-10-28T02:02:26;16.90;65.00
19214;DHT22;9741;51.020;5.304;2022-10-28T02:05:03;16.90;65.10
19214;DHT22;9741;51.020;5.304;2022-10-28T02:07:31;16.90;65.10
19214;DHT22;9741;51.020;5.304;2022-10-28T02:10:02;16.90;65.10
19214;DHT22;9741;51.020;5.304;2022-10-28T02:12:36;16.80;65.00
19214;DHT22;9741;51.020;5.304;2022-10-28T02:15:23;16.80;65.00
19214;DHT22;9741;51.020;5.304;2022-10-28T02:18:19;16.70;64.80
19214;DHT22;9741;51.020;5.304;2022-10-28T02:20:51;16.60;64.70
19214;DHT22;9741;51.020;5.304;2022-10-28T02:23:27;16.50;64.70
19214;DHT22;9741;51.020;5.304;2022-10-28T02:26:00;16.40;64.60
19214;DHT22;9741;51.020;5.304;2022-10-28T02:28:36;16.20;64.60
19214;DHT22;9741;51.020;5.304;2022-10-28T02:31:08;16.10;64.50
19214;DHT22;9741;51.020;5.304;2022-10-28T02:33:42;16.00;64.40
19214;DHT22;9741;51.020;5.304;2022-10-28T02:36:11;15.90;64.50
19214;DHT22;9741;51.020;5.304;2022-10-28T02:38:42;15.80;64.50
19214;DHT22;9741;51.020;5.304;2022-10-28T02:41:16;15.70;64.50
19214;DHT22;9741;51.020;5.304;2022-10-28T02:43:47;15.60;64.50
19214;DHT22;9741;51.020;5.304;2022-10-28T02:46:17;15.50;64.50
19214;DHT22;9741;51.020;5.304;2022-10-28T02:48:48;15.40;64.60
19214;DHT22;9741;51.020;5.304;2022-10-28T02:51:19;15.40;64.70
19214;DHT22;9741;51.020;5.304;2022-10-28T02:53:55;15.30;64.70
19214;DHT22;9741;51.020;5.304;2022-10-28T02:56:22;15.20;64.80
19214;DHT22;9741;51.020;5.304;2022-10-28T02:58:49;15.20;64.90
19214;DHT22;9741;51.020;5.304;2022-10-28T03:01:16;15.10;64.90
19214;DHT22;9741;51.020;5.304;2022-10-28T03:03:43;15.00;64.80
19214;DHT22;9741;51.020;5.304;2022-10-28T03:06:12;15.00;64.80
19214;DHT22;9741;51.020;5.304;2022-10-28T03:08:39;14.90;64.90
19214;DHT22;9741;51.020;5.304;2022-10-28T03:11:06;14.90;65.00
19214;DHT22;9741;51.020;5.304;2022-10-28T03:13:33;14.80;65.00
19214;DHT22;9741;51.020;5.304;2022-10-28T03:16:00;14.80;65.10
19214;DHT22;9741;51.020;5.304;2022-10-28T03:18:27;14.70;65.10
19214;DHT22;9741;51.020;5.304;2022-10-28T03:20:54;14.70;65.40
19214;DHT22;9741;51.020;5.304;2022-10-28T03:23:22;14.70;65.30
19214;DHT22;9741;51.020;5.304;2022-10-28T03:25:49;14.70;65.40
19214;DHT22;9741;51.020;5.304;2022-10-28T03:28:16;14.60;65.40
19214;DHT22;9741;51.020;5.304;2022-10-28T03:30:43;14.70;65.60
19214;DHT22;9741;51.020;5.304;2022-10-28T03:33:10;14.70;65.60
19214;DHT22;9741;51.020;5.304;2022-10-28T03:35:37;14.60;65.50
19214;DHT22;9741;51.020;5.304;2022-10-28T03:38:04;14.70;65.70
19214;DHT22;9741;51.020;5.304;2022-10-28T03:40:33;14.60;65.60
19214;DHT22;9741;51.020;5.304;2022-10-28T03:43:00;14.60;65.70
19214;DHT22;9741;51.020;5.304;2022-10-28T03:45:27;14.50;65.70
19214;DHT22;9741;51.020;5.304;2022-10-28T03:47:54;14.50;65.70
19214;DHT22;9741;51.020;5.304;2022-10-28T03:50:21;14.50;65.80
19214;DHT22;9741;51.020;5.304;2022-10-28T03:52:48;14.50;65.80
19214;DHT22;9741;51.020;5.304;2022-10-28T03:55:15;14.50;65.90
19214;DHT22;9741;51.020;5.304;2022-10-28T03:57:44;14.40;65.80
19214;DHT22;9741;51.020;5.304;2022-10-28T04:00:12;14.40;65.80
19214;DHT22;9741;51.020;5.304;2022-10-28T04:02:39;14.40;65.90
19214;DHT22;9741;51.020;5.304;2022-10-28T04:05:06;14.30;65.90
19214;DHT22;9741;51.020;5.304;2022-10-28T04:07:34;14.30;65.90
19214;DHT22;9741;51.020;5.304;2022-10-28T04:10:01;14.30;65.90
19214;DHT22;9741;51.020;5.304;2022-10-28T04:12:27;14.30;66.00
19214;DHT22;9741;51.020;5.304;2022-10-28T04:14:56;14.30;66.00
19214;DHT22;9741;51.020;5.304;2022-10-28T04:17:23;14.30;66.00
19214;DHT22;9741;51.020;5.304;2022-10-28T04:19:50;14.20;65.90
19214;DHT22;9741;51.020;5.304;2022-10-28T04:22:17;14.20;66.00
19214;DHT22;9741;51.020;5.304;2022-10-28T04:24:44;14.20;66.00
19214;DHT22;9741;51.020;5.304;2022-10-28T04:27:11;14.10;66.00
19214;DHT22;9741;51.020;5.304;2022-10-28T04:29:38;14.10;66.10
19214;DHT22;9741;51.020;5.304;2022-10-28T04:32:07;14.10;66.10
19214;DHT22;9741;51.020;5.304;2022-10-28T04:34:34;14.10;66.20
19214;DHT22;9741;51.020;5.304;2022-10-28T04:37:01;14.10;66.30
19214;DHT22;9741;51.020;5.304;2022-10-28T04:39:28;14.00;66.20
19214;DHT22;9741;51.020;5.304;2022-10-28T04:41:55;14.00;66.30
19214;DHT22;9741;51.020;5.304;2022-10-28T04:44:22;14.00;66.30
19214;DHT22;9741;51.020;5.304;2022-10-28T04:46:49;14.00;66.30
19214;DHT22;9741;51.020;5.304;2022-10-28T04:49:17;14.00;66.30
19214;DHT22;9741;51.020;5.304;2022-10-28T04:51:44;14.00;66.40
19214;DHT22;9741;51.020;5.304;2022-10-28T04:54:11;14.00;66.40
19214;DHT22;9741;51.020;5.304;2022-10-28T04:56:38;13.90;66.30
19214;DHT22;9741;51.020;5.304;2022-10-28T04:59:05;13.90;66.40
19214;DHT22;9741;51.020;5.304;2022-10-28T05:01:32;13.90;66.40
19214;DHT22;9741;51.020;5.304;2022-10-28T05:03:59;13.90;66.40
19214;DHT22;9741;51.020;5.304;2022-10-28T05:06:28;13.80;66.40
19214;DHT22;9741;51.020;5.304;2022-10-28T05:08:55;13.80;66.50
19214;DHT22;9741;51.020;5.304;2022-10-28T05:11:22;13.80;66.50
19214;DHT22;9741;51.020;5.304;2022-10-28T05:13:49;13.80;66.50
19214;DHT22;9741;51.020;5.304;2022-10-28T05:16:17;13.80;66.60
19214;DHT22;9741;51.020;5.304;2022-10-28T05:18:44;13.80;66.60
19214;DHT22;9741;51.020;5.304;2022-10-28T05:21:11;13.90;66.70
19214;DHT22;9741;51.020;5.304;2022-10-28T05:23:40;13.80;66.60
19214;DHT22;9741;51.020;5.304;2022-10-28T05:26:07;13.80;66.60
19214;DHT22;9741;51.020;5.304;2022-10-28T05:28:34;13.80;66.60
19214;DHT22;9741;51.020;5.304;2022-10-28T05:31:01;13.80;66.70
19214;DHT22;9741;51.020;5.304;2022-10-28T05:33:28;13.80;66.70
19214;DHT22;9741;51.020;5.304;2022-10-28T05:35:57;13.80;66.70
19214;DHT22;9741;51.020;5.304;2022-10-28T05:38:24;13.80;66.70
19214;DHT22;9741;51.020;5.304;2022-10-28T05:40:53;13.70;66.60
19214;DHT22;9741;51.020;5.304;2022-10-28T05:43:20;13.70;66.60
19214;DHT22;9741;51.020;5.304;2022-10-28T05:45:51;13.70;66.70
19214;DHT22;9741;51.020;5.304;2022-10-28T05:48:18;13.70;66.80
19214;DHT22;9741;51.020;5.304;2022-10-28T05:50:45;13.60;66.70
19214;DHT22;9741;51.020;5.304;2022-10-28T05:53:13;13.60;66.70
19214;DHT22;9741;51.020;5.304;2022-10-28T05:55:40;13.60;66.80
19214;DHT22;9741;51.020;5.304;2022-10-28T05:58:09;13.60;66.80
19214;DHT22;9741;51.020;5.304;2022-10-28T06:00:36;13.60;66.80
19214;DHT22;9741;51.020;5.304;2022-10-28T06:03:05;13.60;66.90
19214;DHT22;9741;51.020;5.304;2022-10-28T06:05:34;13.60;66.90
19214;DHT22;9741;51.020;5.304;2022-10-28T06:08:03;13.60;66.90
19214;DHT22;9741;51.020;5.304;2022-10-28T06:10:30;13.60;67.00
19214;DHT22;9741;51.020;5.304;2022-10-28T06:12:57;13.60;67.00
19214;DHT22;9741;51.020;5.304;2022-10-28T06:15:26;13.60;67.00
19214;DHT22;9741;51.020;5.304;2022-10-28T06:17:53;13.60;67.10
19214;DHT22;9741;51.020;5.304;2022-10-28T06:20:20;13.60;67.10
19214;DHT22;9741;51.020;5.304;2022-10-28T06:22:48;13.60;67.10
19214;DHT22;9741;51.020;5.304;2022-10-28T06:25:16;13.60;67.10
19214;DHT22;9741;51.020;5.304;2022-10-28T06:27:43;13.60;67.10
19214;DHT22;9741;51.020;5.304;2022-10-28T06:30:11;13.60;67.10
19214;DHT22;9741;51.020;5.304;2022-10-28T06:32:39;13.60;67.00
19214;DHT22;9741;51.020;5.304;2022-10-28T06:35:06;13.60;67.10
19214;DHT22;9741;51.020;5.304;2022-10-28T06:37:33;13.60;67.10
19214;DHT22;9741;51.020;5.304;2022-10-28T06:40:00;13.50;67.10
19214;DHT22;9741;51.020;5.304;2022-10-28T06:42:27;13.60;67.20
19214;DHT22;9741;51.020;5.304;2022-10-28T06:44:54;13.60;67.30
19214;DHT22;9741;51.020;5.304;2022-10-28T06:47:21;13.50;67.20
19214;DHT22;9741;51.020;5.304;2022-10-28T06:49:50;13.60;67.30
19214;DHT22;9741;51.020;5.304;2022-10-28T06:52:17;13.60;67.30
19214;DHT22;9741;51.020;5.304;2022-10-28T06:54:44;13.60;67.40
19214;DHT22;9741;51.020;5.304;2022-10-28T06:57:11;13.70;68.00
19214;DHT22;9741;51.020;5.304;2022-10-28T06:59:38;13.70;67.40
19214;DHT22;9741;51.020;5.304;2022-10-28T07:02:05;13.80;67.50
19214;DHT22;9741;51.020;5.304;2022-10-28T07:04:34;13.90;67.50
19214;DHT22;9741;51.020;5.304;2022-10-28T07:07:10;13.90;67.50
19214;DHT22;9741;51.020;5.304;2022-10-28T07:09:38;14.00;67.50
19214;DHT22;9741;51.020;5.304;2022-10-28T07:12:08;14.00;67.50
19214;DHT22;9741;51.020;5.304;2022-10-28T07:14:39;14.10;67.50
19214;DHT22;9741;51.020;5.304;2022-10-28T07:17:07;14.10;68.00
19214;DHT22;9741;51.020;5.304;2022-10-28T07:19:34;14.20;67.50
19214;DHT22;9741;51.020;5.304;2022-10-28T07:22:02;14.30;67.60
19214;DHT22;9741;51.020;5.304;2022-10-28T07:24:30;14.30;67.60
19214;DHT22;9741;51.020;5.304;2022-10-28T07:26:58;14.40;67.60
19214;DHT22;9741;51.020;5.304;2022-10-28T07:29:25;14.50;67.70
19214;DHT22;9741;51.020;5.304;2022-10-28T07:31:53;14.50;67.60
19214;DHT22;9741;51.020;5.304;2022-10-28T07:34:21;14.60;67.70
19214;DHT22;9741;51.020;5.304;2022-10-28T07:36:48;14.70;67.70
19214;DHT22;9741;51.020;5.304;2022-10-28T07:39:16;14.80;67.70
19214;DHT22;9741;51.020;5.304;2022-10-28T07:41:45;14.90;67.80
19214;DHT22;9741;51.020;5.304;2022-10-28T07:44:12;15.00;67.80
19214;DHT22;9741;51.020;5.304;2022-10-28T07:46:39;15.10;67.90
19214;DHT22;9741;51.020;5.304;2022-10-28T07:49:09;15.20;67.90
19214;DHT22;9741;51.020;5.304;2022-10-28T07:51:36;15.40;68.10
19214;DHT22;9741;51.020;5.304;2022-10-28T07:54:03;15.60;68.30
19214;DHT22;9741;51.020;5.304;2022-10-28T07:56:31;15.90;68.50
19214;DHT22;9741;51.020;5.304;2022-10-28T07:59:02;16.20;68.70
19214;DHT22;9741;51.020;5.304;2022-10-28T08:01:29;16.50;68.80
19214;DHT22;9741;51.020;5.304;2022-10-28T08:03:57;16.80;68.90
19214;DHT22;9741;51.020;5.304;2022-10-28T08:06:26;17.10;69.00
19214;DHT22;9741;51.020;5.304;2022-10-28T08:08:54;17.30;68.90
19214;DHT22;9741;51.020;5.304;2022-10-28T08:11:29;17.60;68.90
19214;DHT22;9741;51.020;5.304;2022-10-28T08:13:56;17.90;68.80
19214;DHT22;9741;51.020;5.304;2022-10-28T08:16:24;18.10;68.70
19214;DHT22;9741;51.020;5.304;2022-10-28T08:18:53;18.30;68.40
19214;DHT22;9741;51.020;5.304;2022-10-28T08:21:21;18.50;68.20
19214;DHT22;9741;51.020;5.304;2022-10-28T08:23:49;18.80;68.10
19214;DHT22;9741;51.020;5.304;2022-10-28T08:26:16;19.00;67.80
19214;DHT22;9741;51.020;5.304;2022-10-28T08:28:43;19.10;67.60
19214;DHT22;9741;51.020;5.304;2022-10-28T08:31:10;19.30;67.30
19214;DHT22;9741;51.020;5.304;2022-10-28T08:33:40;19.50;67.10
19214;DHT22;9741;51.020;5.304;2022-10-28T08:36:10;19.70;66.90
19214;DHT22;9741;51.020;5.304;2022-10-28T08:38:37;19.80;66.60
19214;DHT22;9741;51.020;5.304;2022-10-28T08:41:14;20.00;66.40
19214;DHT22;9741;51.020;5.304;2022-10-28T08:43:59;20.10;66.00
19214;DHT22;9741;51.020;5.304;2022-10-28T08:46:44;20.30;65.80
19214;DHT22;9741;51.020;5.304;2022-10-28T08:49:21;20.30;65.30
19214;DHT22;9741;51.020;5.304;2022-10-28T08:51:53;20.40;65.10
19214;DHT22;9741;51.020;5.304;2022-10-28T08:54:26;20.50;64.80
19214;DHT22;9741;51.020;5.304;2022-10-28T08:56:57;20.60;64.60
19214;DHT22;9741;51.020;5.304;2022-10-28T08:59:30;20.70;64.40
19214;DHT22;9741;51.020;5.304;2022-10-28T09:02:02;20.90;64.20
19214;DHT22;9741;51.020;5.304;2022-10-28T09:04:36;21.00;63.90
19214;DHT22;9741;51.020;5.304;2022-10-28T09:07:08;21.00;63.50
19214;DHT22;9741;51.020;5.304;2022-10-28T09:09:39;21.10;63.20
19214;DHT22;9741;51.020;5.304;2022-10-28T09:12:15;21.20;63.00
19214;DHT22;9741;51.020;5.304;2022-10-28T09:15:06;21.20;62.80
19214;DHT22;9741;51.020;5.304;2022-10-28T09:17:44;21.30;62.70
19214;DHT22;9741;51.020;5.304;2022-10-28T09:20:18;21.40;62.60
19214;DHT22;9741;51.020;5.304;2022-10-28T09:22:54;21.50;62.40
19214;DHT22;9741;51.020;5.304;2022-10-28T09:25:28;21.50;62.70
19214;DHT22;9741;51.020;5.304;2022-10-28T09:28:15;21.60;62.00
19214;DHT22;9741;51.020;5.304;2022-10-28T09:30:50;21.70;61.80
19214;DHT22;9741;51.020;5.304;2022-10-28T09:36:15;21.80;61.50
19214;DHT22;9741;51.020;5.304;2022-10-28T09:38:45;21.90;61.40
19214;DHT22;9741;51.020;5.304;2022-10-28T09:41:17;21.90;61.20
19214;DHT22;9741;51.020;5.304;2022-10-28T09:43:48;21.90;61.10
19214;DHT22;9741;51.020;5.304;2022-10-28T09:46:17;21.90;61.00
19214;DHT22;9741;51.020;5.304;2022-10-28T09:48:47;21.90;61.00
19214;DHT22;9741;51.020;5.304;2022-10-28T09:51:23;21.90;60.90
19214;DHT22;9741;51.020;5.304;2022-10-28T09:53:58;22.00;60.80
19214;DHT22;9741;51.020;5.304;2022-10-28T09:56:29;22.00;60.60
19214;DHT22;9741;51.020;5.304;2022-10-28T09:59:00;22.00;60.50
19214;DHT22;9741;51.020;5.304;2022-10-28T10:01:31;22.10;60.30
19214;DHT22;9741;51.020;5.304;2022-10-28T10:03:59;22.10;60.10
19214;DHT22;9741;51.020;5.304;2022-10-28T10:06:30;22.20;60.00
19214;DHT22;9741;51.020;5.304;2022-10-28T10:08:59;22.20;59.80
19214;DHT22;9741;51.020;5.304;2022-10-28T10:11:31;22.30;59.80
19214;DHT22;9741;51.020;5.304;2022-10-28T10:14:06;22.40;59.60
19214;DHT22;9741;51.020;5.304;2022-10-28T10:16:39;22.50;59.40
19214;DHT22;9741;51.020;5.304;2022-10-28T10:19:10;22.50;59.30
19214;DHT22;9741;51.020;5.304;2022-10-28T10:21:44;22.60;59.10
19214;DHT22;9741;51.020;5.304;2022-10-28T10:24:29;22.70;58.90
19214;DHT22;9741;51.020;5.304;2022-10-28T10:26:59;22.70;58.70
19214;DHT22;9741;51.020;5.304;2022-10-28T10:29:27;22.80;58.50
19214;DHT22;9741;51.020;5.304;2022-10-28T10:32:14;22.90;58.50
19214;DHT22;9741;51.020;5.304;2022-10-28T10:34:44;23.00;58.30
19214;DHT22;9741;51.020;5.304;2022-10-28T10:37:21;23.00;58.10
19214;DHT22;9741;51.020;5.304;2022-10-28T10:40:02;23.10;58.10
19214;DHT22;9741;51.020;5.304;2022-10-28T10:42:29;23.20;58.00
19214;DHT22;9741;51.020;5.304;2022-10-28T10:45:01;23.30;57.90
19214;DHT22;9741;51.020;5.304;2022-10-28T10:47:29;23.30;57.70
19214;DHT22;9741;51.020;5.304;2022-10-28T10:50:26;23.40;57.60
19214;DHT22;9741;51.020;5.304;2022-10-28T10:52:56;23.50;57.50
19214;DHT22;9741;51.020;5.304;2022-10-28T10:55:34;23.60;57.10
19214;DHT22;9741;51.020;5.304;2022-10-28T10:58:03;23.60;56.80
19214;DHT22;9741;51.020;5.304;2022-10-28T11:00:34;23.70;56.70
19214;DHT22;9741;51.020;5.304;2022-10-28T11:03:03;23.80;57.10
19214;DHT22;9741;51.020;5.304;2022-10-28T11:05:31;23.80;56.20
19214;DHT22;9741;51.020;5.304;2022-10-28T11:08:00;23.90;56.20
19214;DHT22;9741;51.020;5.304;2022-10-28T11:10:31;24.00;55.90
19214;DHT22;9741;51.020;5.304;2022-10-28T11:13:03;24.10;55.70
19214;DHT22;9741;51.020;5.304;2022-10-28T11:15:32;24.20;55.40
19214;DHT22;9741;51.020;5.304;2022-10-28T11:18:03;24.30;55.10
19214;DHT22;9741;51.020;5.304;2022-10-28T11:20:48;24.40;54.80
19214;DHT22;9741;51.020;5.304;2022-10-28T11:23:28;24.50;54.50
19214;DHT22;9741;51.020;5.304;2022-10-28T11:26:02;24.60;54.10
19214;DHT22;9741;51.020;5.304;2022-10-28T11:28:48;24.60;53.90
19214;DHT22;9741;51.020;5.304;2022-10-28T11:31:32;24.80;53.60
19214;DHT22;9741;51.020;5.304;2022-10-28T11:34:23;25.00;53.50
19214;DHT22;9741;51.020;5.304;2022-10-28T11:37:00;25.00;53.10
19214;DHT22;9741;51.020;5.304;2022-10-28T11:39:42;25.00;53.00
19214;DHT22;9741;51.020;5.304;2022-10-28T11:42:22;25.00;52.80
19214;DHT22;9741;51.020;5.304;2022-10-28T11:44:58;25.10;52.70
19214;DHT22;9741;51.020;5.304;2022-10-28T11:47:49;25.10;52.50
19214;DHT22;9741;51.020;5.304;2022-10-28T11:50:27;25.20;52.30
19214;DHT22;9741;51.020;5.304;2022-10-28T11:56:15;25.20;51.80
19214;DHT22;9741;51.020;5.304;2022-10-28T11:58:54;25.20;51.70
19214;DHT22;9741;51.020;5.304;2022-10-28T12:01:43;25.20;51.60
19214;DHT22;9741;51.020;5.304;2022-10-28T12:04:30;25.20;51.30
19214;DHT22;9741;51.020;5.304;2022-10-28T12:07:23;25.20;51.30
19214;DHT22;9741;51.020;5.304;2022-10-28T12:10:06;25.20;51.10
19214;DHT22;9741;51.020;5.304;2022-10-28T12:12:44;25.30;51.10
19214;DHT22;9741;51.020;5.304;2022-10-28T12:15:18;25.30;51.20
19214;DHT22;9741;51.020;5.304;2022-10-28T12:17:52;25.40;51.10
19214;DHT22;9741;51.020;5.304;2022-10-28T12:20:29;25.40;51.00
19214;DHT22;9741;51.020;5.304;2022-10-28T12:23:02;25.40;51.00
19214;DHT22;9741;51.020;5.304;2022-10-28T12:25:33;25.40;50.90
19214;DHT22;9741;51.020;5.304;2022-10-28T12:28:05;25.40;50.80
19214;DHT22;9741;51.020;5.304;2022-10-28T12:30:36;25.40;50.70
19214;DHT22;9741;51.020;5.304;2022-10-28T12:33:12;25.30;50.80
19214;DHT22;9741;51.020;5.304;2022-10-28T12:35:47;25.30;50.80
19214;DHT22;9741;51.020;5.304;2022-10-28T12:38:24;25.40;51.00
19214;DHT22;9741;51.020;5.304;2022-10-28T12:41:02;25.40;51.00
19214;DHT22;9741;51.020;5.304;2022-10-28T12:43:37;25.30;50.80
19214;DHT22;9741;51.020;5.304;2022-10-28T12:46:15;25.30;50.80
19214;DHT22;9741;51.020;5.304;2022-10-28T12:48:49;25.20;50.90
19214;DHT22;9741;51.020;5.304;2022-10-28T12:51:20;25.20;50.90
19214;DHT22;9741;51.020;5.304;2022-10-28T12:53:56;25.20;50.90
19214;DHT22;9741;51.020;5.304;2022-10-28T12:56:29;25.20;51.00
19214;DHT22;9741;51.020;5.304;2022-10-28T12:59:02;25.20;50.80
19214;DHT22;9741;51.020;5.304;2022-10-28T13:01:31;25.20;50.80
19214;DHT22;9741;51.020;5.304;2022-10-28T13:03:59;25.20;50.70
19214;DHT22;9741;51.020;5.304;2022-10-28T13:06:56;25.20;50.80
19214;DHT22;9741;51.020;5.304;2022-10-28T13:09:40;25.20;50.60
19214;DHT22;9741;51.020;5.304;2022-10-28T13:12:28;25.20;50.60
19214;DHT22;9741;51.020;5.304;2022-10-28T13:15:24;25.20;50.60
19214;DHT22;9741;51.020;5.304;2022-10-28T13:21:03;25.10;50.70
19214;DHT22;9741;51.020;5.304;2022-10-28T13:23:36;25.10;50.90
19214;DHT22;9741;51.020;5.304;2022-10-28T13:26:16;25.10;51.00
19214;DHT22;9741;51.020;5.304;2022-10-28T13:28:50;25.10;50.90
19214;DHT22;9741;51.020;5.304;2022-10-28T13:31:19;25.10;50.90
19214;DHT22;9741;51.020;5.304;2022-10-28T13:33:51;25.10;51.00
19214;DHT22;9741;51.020;5.304;2022-10-28T13:36:23;25.10;50.90
19214;DHT22;9741;51.020;5.304;2022-10-28T13:38:53;25.10;50.80
19214;DHT22;9741;51.020;5.304;2022-10-28T13:41:30;25.10;50.80
19214;DHT22;9741;51.020;5.304;2022-10-28T13:44:22;25.20;50.90
19214;DHT22;9741;51.020;5.304;2022-10-28T13:50:34;25.10;51.00
19214;DHT22;9741;51.020;5.304;2022-10-28T13:59:04;25.00;51.20
19214;DHT22;9741;51.020;5.304;2022-10-28T14:02:12;25.00;51.20
19214;DHT22;9741;51.020;5.304;2022-10-28T14:04:40;25.00;51.30
19214;DHT22;9741;51.020;5.304;2022-10-28T14:07:22;24.90;51.20
19214;DHT22;9741;51.020;5.304;2022-10-28T14:09:55;24.90;51.40
19214;DHT22;9741;51.020;5.304;2022-10-28T14:12:26;24.90;51.40
19214;DHT22;9741;51.020;5.304;2022-10-28T14:14:58;24.80;51.40
19214;DHT22;9741;51.020;5.304;2022-10-28T14:17:29;24.70;51.30
19214;DHT22;9741;51.020;5.304;2022-10-28T14:20:01;24.60;51.20
19214;DHT22;9741;51.020;5.304;2022-10-28T14:22:33;24.50;51.30
19214;DHT22;9741;51.020;5.304;2022-10-28T14:25:01;24.40;51.20
19214;DHT22;9741;51.020;5.304;2022-10-28T14:27:30;24.40;51.40
19214;DHT22;9741;51.020;5.304;2022-10-28T14:30:22;24.20;51.40
19214;DHT22;9741;51.020;5.304;2022-10-28T14:35:58;24.10;51.70
19214;DHT22;9741;51.020;5.304;2022-10-28T14:38:51;24.10;51.80
19214;DHT22;9741;51.020;5.304;2022-10-28T14:41:37;24.00;51.80
19214;DHT22;9741;51.020;5.304;2022-10-28T14:44:17;24.10;52.00
19214;DHT22;9741;51.020;5.304;2022-10-28T14:46:55;24.00;52.00
19214;DHT22;9741;51.020;5.304;2022-10-28T14:49:29;24.00;52.10
19214;DHT22;9741;51.020;5.304;2022-10-28T14:52:03;23.90;52.10
19214;DHT22;9741;51.020;5.304;2022-10-28T14:54:36;23.90;52.20
19214;DHT22;9741;51.020;5.304;2022-10-28T14:57:04;23.80;52.20
19214;DHT22;9741;51.020;5.304;2022-10-28T14:59:35;23.80;52.30
19214;DHT22;9741;51.020;5.304;2022-10-28T15:02:10;23.70;52.30
19214;DHT22;9741;51.020;5.304;2022-10-28T15:04:39;23.60;52.40
19214;DHT22;9741;51.020;5.304;2022-10-28T15:07:11;23.50;52.50
19214;DHT22;9741;51.020;5.304;2022-10-28T15:09:41;23.50;52.70
19214;DHT22;9741;51.020;5.304;2022-10-28T15:12:11;23.40;52.80
19214;DHT22;9741;51.020;5.304;2022-10-28T15:14:44;23.30;52.80
19214;DHT22;9741;51.020;5.304;2022-10-28T15:17:14;23.30;53.00
19214;DHT22;9741;51.020;5.304;2022-10-28T15:19:43;23.20;52.90
19214;DHT22;9741;51.020;5.304;2022-10-28T15:22:14;23.20;53.10
19214;DHT22;9741;51.020;5.304;2022-10-28T15:24:52;23.10;53.10
19214;DHT22;9741;51.020;5.304;2022-10-28T15:27:19;23.10;53.30
19214;DHT22;9741;51.020;5.304;2022-10-28T15:29:48;23.00;53.30
19214;DHT22;9741;51.020;5.304;2022-10-28T15:32:28;22.90;53.40
19214;DHT22;9741;51.020;5.304;2022-10-28T15:34:56;22.90;53.60
19214;DHT22;9741;51.020;5.304;2022-10-28T15:37:25;22.80;53.60
19214;DHT22;9741;51.020;5.304;2022-10-28T15:40:10;22.70;53.70
19214;DHT22;9741;51.020;5.304;2022-10-28T15:42:39;22.60;53.70
19214;DHT22;9741;51.020;5.304;2022-10-28T15:45:18;22.50;53.90
19214;DHT22;9741;51.020;5.304;2022-10-28T15:47:46;22.40;54.00
19214;DHT22;9741;51.020;5.304;2022-10-28T15:50:25;22.30;54.10
19214;DHT22;9741;51.020;5.304;2022-10-28T15:52:52;22.20;54.20
19214;DHT22;9741;51.020;5.304;2022-10-28T15:55:30;22.10;54.30
19214;DHT22;9741;51.020;5.304;2022-10-28T15:57:59;22.10;54.50
19214;DHT22;9741;51.020;5.304;2022-10-28T16:00:28;22.00;54.60
19214;DHT22;9741;51.020;5.304;2022-10-28T16:02:57;21.90;54.70
19214;DHT22;9741;51.020;5.304;2022-10-28T16:05:52;21.80;54.90
19214;DHT22;9741;51.020;5.304;2022-10-28T16:08:23;21.70;55.00
19214;DHT22;9741;51.020;5.304;2022-10-28T16:10:54;21.50;55.10
19214;DHT22;9741;51.020;5.304;2022-10-28T16:13:25;21.50;55.40
19214;DHT22;9741;51.020;5.304;2022-10-28T16:15:58;21.40;55.50
19214;DHT22;9741;51.020;5.304;2022-10-28T16:18:27;21.20;55.50
19214;DHT22;9741;51.020;5.304;2022-10-28T16:20:56;21.20;55.80
19214;DHT22;9741;51.020;5.304;2022-10-28T16:23:31;21.10;55.70
19214;DHT22;9741;51.020;5.304;2022-10-28T16:26:01;21.00;55.90
19214;DHT22;9741;51.020;5.304;2022-10-28T16:28:29;21.00;56.10
19214;DHT22;9741;51.020;5.304;2022-10-28T16:30:58;20.90;56.10
19214;DHT22;9741;51.020;5.304;2022-10-28T16:33:30;20.80;56.30
19214;DHT22;9741;51.020;5.304;2022-10-28T16:35:58;20.70;56.30
19214;DHT22;9741;51.020;5.304;2022-10-28T16:38:25;20.60;56.50
19214;DHT22;9741;51.020;5.304;2022-10-28T16:40:53;20.60;56.60